^^
Station Historical Data
Daily Summary for June 30, 2017 Units:  Both    English   Metric
« Previous Day
Next Day »
Daily Weekly Monthly Yearly Custom
  High: Low: Average:
Temperature: 73.0 °F /  22.8 °C 46.0 °F /  7.8 °C 57.4 °F /  14.1 °C
Dew Point: 39.2 °F /  4 °C 32.2 °F /  0.1 °C 35.3 °F /  1.8 °C
Humidity: 64% 27% 45%
Wind Speed: 10.1mph /  16.3km/h - 1.3mph /  2.1km/h
Wind Gust: 16.0mph /  25.7km/h - -
Wind- - SW
Pressure: 30.40 in /  1029.3 hPa 30.27 in /  1024.9 hPa -
Precipitation: 0.00 in /  0 mm    
Historical Graphs
 
 
Tabular Data for June 30, 2017
Time Temperature Dew Point Pressure Wind Wind Speed Wind Gust Humidity Rainfall Rate (Hourly) solar Conditions
00:04 54.7 °F /  12.6 °C 33.8 °F /  1 °C 30.33in /  1027hPa Calm     45% 0.00in /  0mm 0.0 W/m2
00:11 54.0 °F /  12.2 °C 33.6 °F /  0.9 °C 30.33in /  1027hPa ENE 0.9mph /  1.4km/h 1.0mph /  1.6km/h 46% 0.00in /  0mm 0.0 W/m2
00:17 53.2 °F /  11.8 °C 33.4 °F /  0.8 °C 30.33in /  1027hPa Calm     47% 0.00in /  0mm 0.0 W/m2
00:23 52.7 °F /  11.5 °C 33.6 °F /  0.9 °C 30.33in /  1027hPa Calm     48% 0.00in /  0mm 0.0 W/m2
00:29 52.2 °F /  11.2 °C 33.1 °F /  0.6 °C 30.33in /  1027hPa ENE 0.9mph /  1.4km/h 1.0mph /  1.6km/h 48% 0.00in /  0mm 0.0 W/m2
00:35 51.6 °F /  10.9 °C 33.1 °F /  0.6 °C 30.33in /  1027hPa Calm     49% 0.00in /  0mm 0.0 W/m2
00:41 51.3 °F /  10.7 °C 33.3 °F /  0.7 °C 30.33in /  1027hPa Calm   1.0mph /  1.6km/h 50% 0.00in /  0mm 0.0 W/m2
00:48 50.7 °F /  10.4 °C 33.3 °F /  0.7 °C 30.33in /  1027hPa Calm     51% 0.00in /  0mm 0.0 W/m2
00:54 50.4 °F /  10.2 °C 33.4 °F /  0.8 °C 30.33in /  1027hPa Calm     52% 0.00in /  0mm 0.0 W/m2
01:00 50.0 °F /  10 °C 33.1 °F /  0.6 °C 30.33in /  1027hPa Calm     52% 0.00in /  0mm 0.0 W/m2
01:06 49.6 °F /  9.8 °C 33.3 °F /  0.7 °C 30.33in /  1027hPa Calm   1.0mph /  1.6km/h 53% 0.00in /  0mm 0.0 W/m2
01:12 49.5 °F /  9.7 °C 33.4 °F /  0.8 °C 30.32in /  1026.6hPa Calm     54% 0.00in /  0mm 0.0 W/m2
01:18 49.3 °F /  9.6 °C 33.8 °F /  1 °C 30.33in /  1027hPa Calm   1.0mph /  1.6km/h 55% 0.00in /  0mm 0.0 W/m2
01:24 48.9 °F /  9.4 °C 34.0 °F /  1.1 °C 30.33in /  1027hPa Calm     56% 0.00in /  0mm 0.0 W/m2
01:31 48.7 °F /  9.3 °C 33.3 °F /  0.7 °C 30.32in /  1026.6hPa Calm   1.0mph /  1.6km/h 55% 0.00in /  0mm 0.0 W/m2
01:37 48.7 °F /  9.3 °C 33.3 °F /  0.7 °C 30.32in /  1026.6hPa Calm     55% 0.00in /  0mm 0.0 W/m2
01:43 48.6 °F /  9.2 °C 33.6 °F /  0.9 °C 30.32in /  1026.6hPa Calm     56% 0.00in /  0mm 0.0 W/m2
01:49 48.6 °F /  9.2 °C 34.0 °F /  1.1 °C 30.32in /  1026.6hPa Calm     57% 0.00in /  0mm 0.0 W/m2
01:55 48.4 °F /  9.1 °C 33.8 °F /  1 °C 30.32in /  1026.6hPa Calm   1.0mph /  1.6km/h 57% 0.00in /  0mm 0.0 W/m2
02:01 48.6 °F /  9.2 °C 34.0 °F /  1.1 °C 30.32in /  1026.6hPa Calm   1.0mph /  1.6km/h 57% 0.00in /  0mm 0.0 W/m2
02:07 48.6 °F /  9.2 °C 34.0 °F /  1.1 °C 30.32in /  1026.6hPa Calm     57% 0.00in /  0mm 0.0 W/m2
02:14 48.6 °F /  9.2 °C 34.9 °F /  1.6 °C 30.32in /  1026.6hPa Calm   1.0mph /  1.6km/h 59% 0.00in /  0mm 0.0 W/m2
02:20 48.6 °F /  9.2 °C 34.9 °F /  1.6 °C 30.32in /  1026.6hPa Calm     59% 0.00in /  0mm 0.0 W/m2
02:26 48.6 °F /  9.2 °C 34.9 °F /  1.6 °C 30.32in /  1026.6hPa Calm     59% 0.00in /  0mm 0.0 W/m2
02:32 48.6 °F /  9.2 °C 34.9 °F /  1.6 °C 30.32in /  1026.6hPa Calm   1.0mph /  1.6km/h 59% 0.00in /  0mm 0.0 W/m2
02:38 48.7 °F /  9.3 °C 35.1 °F /  1.7 °C 30.32in /  1026.6hPa Calm   1.0mph /  1.6km/h 59% 0.00in /  0mm 0.0 W/m2
02:44 48.7 °F /  9.3 °C 35.1 °F /  1.7 °C 30.32in /  1026.6hPa Calm     59% 0.00in /  0mm 0.0 W/m2
02:50 48.7 °F /  9.3 °C 35.1 °F /  1.7 °C 30.32in /  1026.6hPa Calm     59% 0.00in /  0mm 0.0 W/m2
02:57 48.7 °F /  9.3 °C 35.1 °F /  1.7 °C 30.32in /  1026.6hPa Calm     59% 0.00in /  0mm 0.0 W/m2
03:03 48.6 °F /  9.2 °C 34.9 °F /  1.6 °C 30.32in /  1026.6hPa Calm     59% 0.00in /  0mm 0.0 W/m2
03:09 48.4 °F /  9.1 °C 34.7 °F /  1.5 °C 30.33in /  1027hPa Calm     59% 0.00in /  0mm 0.0 W/m2
03:15 48.0 °F /  8.9 °C 34.3 °F /  1.3 °C 30.33in /  1027hPa Calm     59% 0.00in /  0mm 0.0 W/m2
03:21 47.8 °F /  8.8 °C 34.2 °F /  1.2 °C 30.33in /  1027hPa Calm   1.0mph /  1.6km/h 59% 0.00in /  0mm 0.0 W/m2
03:27 47.7 °F /  8.7 °C 34.0 °F /  1.1 °C 30.32in /  1026.6hPa Calm     59% 0.00in /  0mm 0.0 W/m2
03:33 47.5 °F /  8.6 °C 33.8 °F /  1 °C 30.33in /  1027hPa ENE 1.0mph /  1.6km/h 1.0mph /  1.6km/h 59% 0.00in /  0mm 0.0 W/m2
03:39 47.5 °F /  8.6 °C 34.3 °F /  1.3 °C 30.33in /  1027hPa Calm     60% 0.00in /  0mm 0.0 W/m2
03:45 47.3 °F /  8.5 °C 34.2 °F /  1.2 °C 30.33in /  1027hPa Calm     60% 0.00in /  0mm 0.0 W/m2
03:52 47.1 °F /  8.4 °C 34.3 °F /  1.3 °C 30.33in /  1027hPa Calm     61% 0.00in /  0mm 0.0 W/m2
03:58 46.9 °F /  8.3 °C 34.2 °F /  1.2 °C 30.33in /  1027hPa Calm   1.0mph /  1.6km/h 61% 0.00in /  0mm 0.0 W/m2
04:04 46.9 °F /  8.3 °C 34.2 °F /  1.2 °C 30.33in /  1027hPa Calm     61% 0.00in /  0mm 0.0 W/m2
04:10 46.8 °F /  8.2 °C 34.5 °F /  1.4 °C 30.33in /  1027hPa Calm     62% 0.00in /  0mm 0.0 W/m2
04:16 46.6 °F /  8.1 °C 34.3 °F /  1.3 °C 30.33in /  1027hPa Calm     62% 0.00in /  0mm 0.0 W/m2
04:22 46.6 °F /  8.1 °C 34.3 °F /  1.3 °C 30.33in /  1027hPa Calm     62% 0.00in /  0mm 0.0 W/m2
04:28 46.4 °F /  8 °C 34.2 °F /  1.2 °C 30.33in /  1027hPa Calm     62% 0.00in /  0mm 0.0 W/m2
04:35 46.2 °F /  7.9 °C 34.3 °F /  1.3 °C 30.33in /  1027hPa Calm   1.0mph /  1.6km/h 63% 0.00in /  0mm 0.0 W/m2
04:41 46.2 °F /  7.9 °C 34.0 °F /  1.1 °C 30.33in /  1027hPa Calm     62% 0.00in /  0mm 0.0 W/m2
04:47 46.2 °F /  7.9 °C 34.0 °F /  1.1 °C 30.34in /  1027.3hPa Calm     62% 0.00in /  0mm 0.0 W/m2
04:53 46.2 °F /  7.9 °C 34.3 °F /  1.3 °C 30.34in /  1027.3hPa Calm     63% 0.00in /  0mm 0.0 W/m2
04:59 46.2 °F /  7.9 °C 34.3 °F /  1.3 °C 30.34in /  1027.3hPa Calm     63% 0.00in /  0mm 0.0 W/m2
05:05 46.2 °F /  7.9 °C 34.3 °F /  1.3 °C 30.34in /  1027.3hPa Calm     63% 0.00in /  0mm 0.0 W/m2
05:12 46.2 °F /  7.9 °C 34.3 °F /  1.3 °C 30.34in /  1027.3hPa Calm     63% 0.00in /  0mm 0.0 W/m2
05:18 46.0 °F /  7.8 °C 34.5 °F /  1.4 °C 30.34in /  1027.3hPa Calm   1.0mph /  1.6km/h 64% 0.00in /  0mm 0.0 W/m2
05:24 46.0 °F /  7.8 °C 34.5 °F /  1.4 °C 30.34in /  1027.3hPa Calm     64% 0.00in /  0mm 0.0 W/m2
05:30 46.2 °F /  7.9 °C 34.7 °F /  1.5 °C 30.35in /  1027.7hPa Calm   2.0mph /  3.2km/h 64% 0.00in /  0mm 0.0 W/m2
05:36 46.4 °F /  8 °C 34.9 °F /  1.6 °C 30.35in /  1027.7hPa Calm     64% 0.00in /  0mm 0.0 W/m2
05:45 46.8 °F /  8.2 °C 35.2 °F /  1.8 °C 30.35in /  1027.7hPa Calm   2.0mph /  3.2km/h 64% 0.00in /  0mm 0.0 W/m2
05:50 47.1 °F /  8.4 °C 35.2 °F /  1.8 °C 30.35in /  1027.7hPa Calm   1.0mph /  1.6km/h 63% 0.00in /  0mm 0.0 W/m2
05:57 47.5 °F /  8.6 °C 35.1 °F /  1.7 °C 30.35in /  1027.7hPa Calm   1.0mph /  1.6km/h 62% 0.00in /  0mm 0.0 W/m2
06:03 47.7 °F /  8.7 °C 35.2 °F /  1.8 °C 30.36in /  1028hPa Calm     62% 0.00in /  0mm 0.0 W/m2
06:09 47.7 °F /  8.7 °C 34.9 °F /  1.6 °C 30.36in /  1028hPa Calm   1.0mph /  1.6km/h 61% 0.00in /  0mm 0.0 W/m2
06:15 47.5 °F /  8.6 °C 34.7 °F /  1.5 °C 30.36in /  1028hPa Calm   1.0mph /  1.6km/h 61% 0.00in /  0mm 0.0 W/m2
06:21 47.5 °F /  8.6 °C 34.7 °F /  1.5 °C 30.36in /  1028hPa Calm   2.0mph /  3.2km/h 61% 0.00in /  0mm 0.0 W/m2
06:27 47.5 °F /  8.6 °C 34.7 °F /  1.5 °C 30.36in /  1028hPa Calm   1.0mph /  1.6km/h 61% 0.00in /  0mm 0.0 W/m2
06:34 47.7 °F /  8.7 °C 34.9 °F /  1.6 °C 30.37in /  1028.3hPa Calm   1.0mph /  1.6km/h 61% 0.00in /  0mm 0.0 W/m2
06:40 47.7 °F /  8.7 °C 35.2 °F /  1.8 °C 30.37in /  1028.3hPa Calm   2.0mph /  3.2km/h 62% 0.00in /  0mm 5.0 W/m2
06:45 47.7 °F /  8.7 °C 34.9 °F /  1.6 °C 30.37in /  1028.3hPa ENE 0.9mph /  1.4km/h 2.0mph /  3.2km/h 61% 0.00in /  0mm 7.0 W/m2
06:48 47.8 °F /  8.8 °C 35.1 °F /  1.7 °C 30.37in /  1028.3hPa ENE 2.9mph /  4.7km/h 3.0mph /  4.8km/h 61% 0.00in /  0mm 11.0 W/m2
06:54 47.8 °F /  8.8 °C 35.1 °F /  1.7 °C 30.37in /  1028.3hPa Calm   1.0mph /  1.6km/h 61% 0.00in /  0mm 14.0 W/m2
07:00 48.0 °F /  8.9 °C 35.2 °F /  1.8 °C 30.37in /  1028.3hPa Calm   1.0mph /  1.6km/h 61% 0.00in /  0mm 18.0 W/m2
07:06 48.2 °F /  9 °C 35.4 °F /  1.9 °C 30.37in /  1028.3hPa Calm   2.0mph /  3.2km/h 61% 0.00in /  0mm 21.0 W/m2
07:12 48.4 °F /  9.1 °C 35.6 °F /  2 °C 30.37in /  1028.3hPa NNE 2.0mph /  3.2km/h 4.0mph /  6.4km/h 61% 0.00in /  0mm 23.0 W/m2
07:19 48.7 °F /  9.3 °C 36.0 °F /  2.2 °C 30.38in /  1028.7hPa Calm   1.0mph /  1.6km/h 61% 0.00in /  0mm 25.0 W/m2
07:25 48.9 °F /  9.4 °C 36.1 °F /  2.3 °C 30.38in /  1028.7hPa East 0.9mph /  1.4km/h 3.0mph /  4.8km/h 61% 0.00in /  0mm 28.0 W/m2
07:31 49.1 °F /  9.5 °C 36.7 °F /  2.6 °C 30.38in /  1028.7hPa ENE 0.9mph /  1.4km/h 1.0mph /  1.6km/h 62% 0.00in /  0mm 32.0 W/m2
07:37 49.5 °F /  9.7 °C 37.0 °F /  2.8 °C 30.38in /  1028.7hPa Calm   2.0mph /  3.2km/h 62% 0.00in /  0mm 33.0 W/m2
07:43 49.8 °F /  9.9 °C 36.9 °F /  2.7 °C 30.38in /  1028.7hPa Calm   3.0mph /  4.8km/h 61% 0.00in /  0mm 35.0 W/m2
07:49 50.5 °F /  10.3 °C 37.6 °F /  3.1 °C 30.38in /  1028.7hPa Calm   2.0mph /  3.2km/h 61% 0.00in /  0mm 42.0 W/m2
07:57 51.4 °F /  10.8 °C 37.6 °F /  3.1 °C 30.39in /  1029hPa ENE 2.0mph /  3.2km/h 3.0mph /  4.8km/h 59% 0.00in /  0mm 72.0 W/m2
08:03 53.8 °F /  12.1 °C 38.5 °F /  3.6 °C 30.39in /  1029hPa Calm   1.0mph /  1.6km/h 56% 0.00in /  0mm 234.0 W/m2
08:09 55.6 °F /  13.1 °C 37.8 °F /  3.2 °C 30.39in /  1029hPa Calm   2.0mph /  3.2km/h 51% 0.00in /  0mm 244.0 W/m2
08:15 57.4 °F /  14.1 °C 38.3 °F /  3.5 °C 30.39in /  1029hPa North 0.9mph /  1.4km/h 3.0mph /  4.8km/h 49% 0.00in /  0mm 237.0 W/m2
08:22 58.5 °F /  14.7 °C 38.3 °F /  3.5 °C 30.39in /  1029hPa NNW 0.9mph /  1.4km/h 3.0mph /  4.8km/h 47% 0.00in /  0mm 294.0 W/m2
08:27 59.7 °F /  15.4 °C 37.8 °F /  3.2 °C 30.39in /  1029hPa North 0.9mph /  1.4km/h 6.0mph /  9.7km/h 44% 0.00in /  0mm 306.0 W/m2
08:36 61.0 °F /  16.1 °C 38.3 °F /  3.5 °C 30.39in /  1029hPa NW 2.0mph /  3.2km/h 7.0mph /  11.3km/h 43% 0.00in /  0mm 338.0 W/m2
08:42 61.3 °F /  16.3 °C 38.1 °F /  3.4 °C 30.39in /  1029hPa North 4.0mph /  6.4km/h 6.0mph /  9.7km/h 42% 0.00in /  0mm 352.0 W/m2
08:48 61.9 °F /  16.6 °C 37.9 °F /  3.3 °C 30.39in /  1029hPa North 0.9mph /  1.4km/h 7.0mph /  11.3km/h 41% 0.00in /  0mm 374.0 W/m2
08:54 62.1 °F /  16.7 °C 38.1 °F /  3.4 °C 30.39in /  1029hPa North 4.0mph /  6.4km/h 8.0mph /  12.9km/h 41% 0.00in /  0mm 385.0 W/m2
09:00 62.4 °F /  16.9 °C 39.0 °F /  3.9 °C 30.39in /  1029hPa NNW 4.9mph /  7.9km/h 6.0mph /  9.7km/h 42% 0.00in /  0mm 411.0 W/m2
09:06 62.8 °F /  17.1 °C 38.1 °F /  3.4 °C 30.39in /  1029hPa NW 2.9mph /  4.7km/h 9.0mph /  14.5km/h 40% 0.00in /  0mm 439.0 W/m2
09:12 63.0 °F /  17.2 °C 38.3 °F /  3.5 °C 30.39in /  1029hPa NNW 0.9mph /  1.4km/h 7.0mph /  11.3km/h 40% 0.00in /  0mm 176.0 W/m2
09:18 63.1 °F /  17.3 °C 37.8 °F /  3.2 °C 30.39in /  1029hPa WNW 2.9mph /  4.7km/h 7.0mph /  11.3km/h 39% 0.00in /  0mm 475.0 W/m2
09:25 63.5 °F /  17.5 °C 38.1 °F /  3.4 °C 30.39in /  1029hPa WNW 8.1mph /  13km/h 8.1mph /  13km/h 39% 0.00in /  0mm 510.0 W/m2
09:31 63.7 °F /  17.6 °C 38.3 °F /  3.5 °C 30.39in /  1029hPa NNW 2.9mph /  4.7km/h 5.0mph /  8km/h 39% 0.00in /  0mm 318.0 W/m2
09:37 63.9 °F /  17.7 °C 38.5 °F /  3.6 °C 30.39in /  1029hPa Calm   5.0mph /  8km/h 39% 0.00in /  0mm 316.0 W/m2
09:43 64.0 °F /  17.8 °C 37.9 °F /  3.3 °C 30.40in /  1029.3hPa NNW 2.0mph /  3.2km/h 7.0mph /  11.3km/h 38% 0.00in /  0mm 297.0 W/m2
09:49 64.2 °F /  17.9 °C 38.1 °F /  3.4 °C 30.39in /  1029hPa NNW 2.0mph /  3.2km/h 3.0mph /  4.8km/h 38% 0.00in /  0mm 538.0 W/m2
09:55 64.8 °F /  18.2 °C 38.5 °F /  3.6 °C 30.39in /  1029hPa Calm   9.0mph /  14.5km/h 38% 0.00in /  0mm 536.0 W/m2
10:01 65.3 °F /  18.5 °C 38.3 °F /  3.5 °C 30.39in /  1029hPa North 4.0mph /  6.4km/h 6.0mph /  9.7km/h 37% 0.00in /  0mm 547.0 W/m2
10:07 65.7 °F /  18.7 °C 38.7 °F /  3.7 °C 30.39in /  1029hPa NNE 4.9mph /  7.9km/h 5.0mph /  8km/h 37% 0.00in /  0mm 555.0 W/m2
10:13 66.0 °F /  18.9 °C 38.3 °F /  3.5 °C 30.39in /  1029hPa Calm   6.0mph /  9.7km/h 36% 0.00in /  0mm 563.0 W/m2
10:21 66.6 °F /  19.2 °C 38.8 °F /  3.8 °C 30.39in /  1029hPa Calm   6.0mph /  9.7km/h 36% 0.00in /  0mm 578.0 W/m2
10:27 66.9 °F /  19.4 °C 38.3 °F /  3.5 °C 30.39in /  1029hPa North 4.9mph /  7.9km/h 7.0mph /  11.3km/h 35% 0.00in /  0mm 585.0 W/m2
10:33 67.3 °F /  19.6 °C 38.7 °F /  3.7 °C 30.38in /  1028.7hPa NNE 10.1mph /  16.3km/h 12.0mph /  19.3km/h 35% 0.00in /  0mm 592.0 W/m2
10:39 67.5 °F /  19.7 °C 38.8 °F /  3.8 °C 30.38in /  1028.7hPa NNW 6.9mph /  11.1km/h 7.0mph /  11.3km/h 35% 0.00in /  0mm 596.0 W/m2
10:45 67.8 °F /  19.9 °C 39.2 °F /  4 °C 30.38in /  1028.7hPa North 2.9mph /  4.7km/h 7.0mph /  11.3km/h 35% 0.00in /  0mm 606.0 W/m2
10:51 67.8 °F /  19.9 °C 38.5 °F /  3.6 °C 30.37in /  1028.3hPa NNW 2.9mph /  4.7km/h 9.0mph /  14.5km/h 34% 0.00in /  0mm 617.0 W/m2
10:57 68.4 °F /  20.2 °C 38.1 °F /  3.4 °C 30.37in /  1028.3hPa North 4.9mph /  7.9km/h 13.0mph /  20.9km/h 33% 0.00in /  0mm 628.0 W/m2
11:03 68.5 °F /  20.3 °C 38.3 °F /  3.5 °C 30.37in /  1028.3hPa NNW 6.0mph /  9.7km/h 8.0mph /  12.9km/h 33% 0.00in /  0mm 631.0 W/m2
11:09 68.9 °F /  20.5 °C 37.8 °F /  3.2 °C 30.36in /  1028hPa NNW 0.9mph /  1.4km/h 7.0mph /  11.3km/h 32% 0.00in /  0mm 638.0 W/m2
11:15 69.3 °F /  20.7 °C 38.1 °F /  3.4 °C 30.36in /  1028hPa NW 8.9mph /  14.3km/h 10.0mph /  16.1km/h 32% 0.00in /  0mm 640.0 W/m2
11:21 69.3 °F /  20.7 °C 38.1 °F /  3.4 °C 30.36in /  1028hPa North 2.0mph /  3.2km/h 8.0mph /  12.9km/h 32% 0.00in /  0mm 647.0 W/m2
11:27 69.6 °F /  20.9 °C 38.5 °F /  3.6 °C 30.35in /  1027.7hPa NW 4.0mph /  6.4km/h 10.0mph /  16.1km/h 32% 0.00in /  0mm 652.0 W/m2
11:33 69.8 °F /  21 °C 37.8 °F /  3.2 °C 30.35in /  1027.7hPa NW 8.9mph /  14.3km/h 10.0mph /  16.1km/h 31% 0.00in /  0mm 650.0 W/m2
11:39 69.8 °F /  21 °C 37.8 °F /  3.2 °C 30.34in /  1027.3hPa NW 4.9mph /  7.9km/h 16.0mph /  25.7km/h 31% 0.00in /  0mm 649.0 W/m2
11:45 70.2 °F /  21.2 °C 38.1 °F /  3.4 °C 30.34in /  1027.3hPa NNE 6.0mph /  9.7km/h 10.0mph /  16.1km/h 31% 0.00in /  0mm 654.0 W/m2
11:51 70.3 °F /  21.3 °C 38.3 °F /  3.5 °C 30.34in /  1027.3hPa North 8.9mph /  14.3km/h 11.0mph /  17.7km/h 31% 0.00in /  0mm 656.0 W/m2
11:57 70.2 °F /  21.2 °C 38.1 °F /  3.4 °C 30.34in /  1027.3hPa Calm   9.0mph /  14.5km/h 31% 0.00in /  0mm 652.0 W/m2
12:03 70.3 °F /  21.3 °C 38.3 °F /  3.5 °C 30.33in /  1027hPa NNW 4.0mph /  6.4km/h 9.0mph /  14.5km/h 31% 0.00in /  0mm 652.0 W/m2
12:09 70.5 °F /  21.4 °C 38.5 °F /  3.6 °C 30.33in /  1027hPa WNW 4.9mph /  7.9km/h 7.0mph /  11.3km/h 31% 0.00in /  0mm 645.0 W/m2
12:15 70.9 °F /  21.6 °C 37.9 °F /  3.3 °C 30.32in /  1026.6hPa Calm   5.0mph /  8km/h 30% 0.00in /  0mm 652.0 W/m2
12:21 71.2 °F /  21.8 °C 38.3 °F /  3.5 °C 30.32in /  1026.6hPa NNW 6.0mph /  9.7km/h 12.0mph /  19.3km/h 30% 0.00in /  0mm 650.0 W/m2
12:27 71.2 °F /  21.8 °C 38.3 °F /  3.5 °C 30.32in /  1026.6hPa Calm   11.0mph /  17.7km/h 30% 0.00in /  0mm 642.0 W/m2
12:33 71.4 °F /  21.9 °C 37.6 °F /  3.1 °C 30.32in /  1026.6hPa NNW 4.9mph /  7.9km/h 15.0mph /  24.1km/h 29% 0.00in /  0mm 638.0 W/m2
12:39 71.2 °F /  21.8 °C 37.4 °F /  3 °C 30.31in /  1026.3hPa North 2.9mph /  4.7km/h 9.0mph /  14.5km/h 29% 0.00in /  0mm 622.0 W/m2
12:45 71.4 °F /  21.9 °C 37.6 °F /  3.1 °C 30.31in /  1026.3hPa NW 4.9mph /  7.9km/h 14.0mph /  22.5km/h 29% 0.00in /  0mm 629.0 W/m2
12:51 71.4 °F /  21.9 °C 37.6 °F /  3.1 °C 30.31in /  1026.3hPa NW 8.1mph /  13km/h 10.0mph /  16.1km/h 29% 0.00in /  0mm 621.0 W/m2
12:58 71.4 °F /  21.9 °C 37.6 °F /  3.1 °C 30.31in /  1026.3hPa NW 6.0mph /  9.7km/h 14.0mph /  22.5km/h 29% 0.00in /  0mm 613.0 W/m2
13:59 72.5 °F /  22.5 °C 37.6 °F /  3.1 °C 30.28in /  1025.3hPa North 4.9mph /  7.9km/h 12.0mph /  19.3km/h 28% 0.00in /  0mm 534.0 W/m2
14:05 72.3 °F /  22.4 °C 37.4 °F /  3 °C 30.28in /  1025.3hPa North 4.9mph /  7.9km/h 6.0mph /  9.7km/h 28% 0.00in /  0mm 513.0 W/m2
14:11 72.5 °F /  22.5 °C 37.6 °F /  3.1 °C 30.28in /  1025.3hPa NW 8.9mph /  14.3km/h 12.0mph /  19.3km/h 28% 0.00in /  0mm 512.0 W/m2
14:17 72.7 °F /  22.6 °C 37.8 °F /  3.2 °C 30.27in /  1024.9hPa NW 6.9mph /  11.1km/h 7.0mph /  11.3km/h 28% 0.00in /  0mm 483.0 W/m2
14:23 72.7 °F /  22.6 °C 36.9 °F /  2.7 °C 30.28in /  1025.3hPa Calm   3.0mph /  4.8km/h 27% 0.00in /  0mm 471.0 W/m2
14:29 72.9 °F /  22.7 °C 37.8 °F /  3.2 °C 30.28in /  1025.3hPa Calm   5.0mph /  8km/h 28% 0.00in /  0mm 457.0 W/m2
14:35 73.0 °F /  22.8 °C 37.0 °F /  2.8 °C 30.28in /  1025.3hPa West 2.9mph /  4.7km/h 9.0mph /  14.5km/h 27% 0.00in /  0mm 452.0 W/m2
14:41 72.9 °F /  22.7 °C 36.9 °F /  2.7 °C 30.28in /  1025.3hPa North 2.9mph /  4.7km/h 9.0mph /  14.5km/h 27% 0.00in /  0mm 67.0 W/m2
14:47 72.0 °F /  22.2 °C 37.0 °F /  2.8 °C 30.28in /  1025.3hPa Calm   6.0mph /  9.7km/h 28% 0.00in /  0mm 65.0 W/m2
14:53 71.4 °F /  21.9 °C 36.7 °F /  2.6 °C 30.28in /  1025.3hPa Calm   5.0mph /  8km/h 28% 0.00in /  0mm 77.0 W/m2
14:59 71.2 °F /  21.8 °C 36.5 °F /  2.5 °C 30.28in /  1025.3hPa NNW 4.0mph /  6.4km/h 7.0mph /  11.3km/h 28% 0.00in /  0mm 388.0 W/m2
15:05 71.4 °F /  21.9 °C 35.8 °F /  2.1 °C 30.28in /  1025.3hPa NW 2.9mph /  4.7km/h 9.0mph /  14.5km/h 27% 0.00in /  0mm 360.0 W/m2
15:11 71.4 °F /  21.9 °C 35.8 °F /  2.1 °C 30.28in /  1025.3hPa NNW 8.1mph /  13km/h 8.1mph /  13km/h 27% 0.00in /  0mm 336.0 W/m2
15:17 71.4 °F /  21.9 °C 35.8 °F /  2.1 °C 30.28in /  1025.3hPa North 4.0mph /  6.4km/h 7.0mph /  11.3km/h 27% 0.00in /  0mm 320.0 W/m2
15:23 71.4 °F /  21.9 °C 35.8 °F /  2.1 °C 30.28in /  1025.3hPa NW 4.0mph /  6.4km/h 8.0mph /  12.9km/h 27% 0.00in /  0mm 186.0 W/m2
15:29 71.2 °F /  21.8 °C 36.5 °F /  2.5 °C 30.28in /  1025.3hPa NW 6.0mph /  9.7km/h 8.0mph /  12.9km/h 28% 0.00in /  0mm 70.0 W/m2
15:35 71.1 °F /  21.7 °C 36.3 °F /  2.4 °C 30.28in /  1025.3hPa WNW 0.9mph /  1.4km/h 6.0mph /  9.7km/h 28% 0.00in /  0mm 56.0 W/m2
15:41 71.1 °F /  21.7 °C 36.3 °F /  2.4 °C 30.28in /  1025.3hPa Calm   9.0mph /  14.5km/h 28% 0.00in /  0mm 63.0 W/m2
15:47 70.9 °F /  21.6 °C 36.1 °F /  2.3 °C 30.28in /  1025.3hPa NNW 6.0mph /  9.7km/h 7.0mph /  11.3km/h 28% 0.00in /  0mm 56.0 W/m2
15:53 70.3 °F /  21.3 °C 35.6 °F /  2 °C 30.28in /  1025.3hPa NW 2.9mph /  4.7km/h 7.0mph /  11.3km/h 28% 0.00in /  0mm 65.0 W/m2
15:59 70.2 °F /  21.2 °C 36.5 °F /  2.5 °C 30.28in /  1025.3hPa West 2.9mph /  4.7km/h 5.0mph /  8km/h 29% 0.00in /  0mm 58.0 W/m2
16:05 70.2 °F /  21.2 °C 35.6 °F /  2 °C 30.28in /  1025.3hPa NNW 6.9mph /  11.1km/h 10.0mph /  16.1km/h 28% 0.00in /  0mm 58.0 W/m2
16:11 70.0 °F /  21.1 °C 35.4 °F /  1.9 °C 30.28in /  1025.3hPa NNW 2.0mph /  3.2km/h 10.0mph /  16.1km/h 28% 0.00in /  0mm 35.0 W/m2
16:17 69.8 °F /  21 °C 36.1 °F /  2.3 °C 30.28in /  1025.3hPa NW 0.9mph /  1.4km/h 2.0mph /  3.2km/h 29% 0.00in /  0mm 30.0 W/m2
16:23 69.4 °F /  20.8 °C 34.9 °F /  1.6 °C 30.29in /  1025.6hPa NNW 2.0mph /  3.2km/h 3.0mph /  4.8km/h 28% 0.00in /  0mm 35.0 W/m2
16:29 69.3 °F /  20.7 °C 34.7 °F /  1.5 °C 30.29in /  1025.6hPa Calm   4.0mph /  6.4km/h 28% 0.00in /  0mm 44.0 W/m2
16:35 69.3 °F /  20.7 °C 35.6 °F /  2 °C 30.29in /  1025.6hPa Calm   3.0mph /  4.8km/h 29% 0.00in /  0mm 37.0 W/m2
16:41 69.1 °F /  20.6 °C 36.3 °F /  2.4 °C 30.29in /  1025.6hPa Calm     30% 0.00in /  0mm 26.0 W/m2
16:47 68.7 °F /  20.4 °C 36.0 °F /  2.2 °C 30.29in /  1025.6hPa Calm   1.0mph /  1.6km/h 30% 0.00in /  0mm 23.0 W/m2
16:53 68.4 °F /  20.2 °C 34.9 °F /  1.6 °C 30.29in /  1025.6hPa Calm   5.0mph /  8km/h 29% 0.00in /  0mm 18.0 W/m2
16:59 68.2 °F /  20.1 °C 35.6 °F /  2 °C 30.29in /  1025.6hPa NNE 0.9mph /  1.4km/h 1.0mph /  1.6km/h 30% 0.00in /  0mm 14.0 W/m2
17:05 67.8 °F /  19.9 °C 35.2 °F /  1.8 °C 30.29in /  1025.6hPa Calm     30% 0.00in /  0mm 12.0 W/m2
17:11 67.6 °F /  19.8 °C 35.1 °F /  1.7 °C 30.30in /  1026hPa Calm   2.0mph /  3.2km/h 30% 0.00in /  0mm 7.0 W/m2
17:17 67.1 °F /  19.5 °C 35.4 °F /  1.9 °C 30.30in /  1026hPa Calm   1.0mph /  1.6km/h 31% 0.00in /  0mm 0.0 W/m2
17:23 66.6 °F /  19.2 °C 35.8 °F /  2.1 °C 30.30in /  1026hPa Calm   1.0mph /  1.6km/h 32% 0.00in /  0mm 0.0 W/m2
17:29 66.0 °F /  18.9 °C 35.2 °F /  1.8 °C 30.30in /  1026hPa Calm     32% 0.00in /  0mm 0.0 W/m2
17:35 65.5 °F /  18.6 °C 35.6 °F /  2 °C 30.30in /  1026hPa Calm     33% 0.00in /  0mm 0.0 W/m2
17:41 64.8 °F /  18.2 °C 35.1 °F /  1.7 °C 30.30in /  1026hPa Calm     33% 0.00in /  0mm 0.0 W/m2
17:47 64.0 °F /  17.8 °C 35.1 °F /  1.7 °C 30.31in /  1026.3hPa Calm     34% 0.00in /  0mm 0.0 W/m2
17:53 63.3 °F /  17.4 °C 35.2 °F /  1.8 °C 30.31in /  1026.3hPa Calm     35% 0.00in /  0mm 0.0 W/m2
17:59 62.6 °F /  17 °C 35.2 °F /  1.8 °C 30.31in /  1026.3hPa Calm     36% 0.00in /  0mm 0.0 W/m2
18:05 61.9 °F /  16.6 °C 35.2 °F /  1.8 °C 30.31in /  1026.3hPa Calm     37% 0.00in /  0mm 0.0 W/m2
18:11 61.2 °F /  16.2 °C 35.4 °F /  1.9 °C 30.31in /  1026.3hPa Calm     38% 0.00in /  0mm 0.0 W/m2
18:17 60.6 °F /  15.9 °C 34.9 °F /  1.6 °C 30.32in /  1026.6hPa Calm     38% 0.00in /  0mm 0.0 W/m2
18:23 59.9 °F /  15.5 °C 34.9 °F /  1.6 °C 30.32in /  1026.6hPa Calm     39% 0.00in /  0mm 0.0 W/m2
18:29 59.2 °F /  15.1 °C 34.2 °F /  1.2 °C 30.32in /  1026.6hPa Calm     39% 0.00in /  0mm 0.0 W/m2
18:35 58.6 °F /  14.8 °C 34.3 °F /  1.3 °C 30.32in /  1026.6hPa Calm     40% 0.00in /  0mm 0.0 W/m2
18:41 57.9 °F /  14.4 °C 34.3 °F /  1.3 °C 30.32in /  1026.6hPa Calm   1.0mph /  1.6km/h 41% 0.00in /  0mm 0.0 W/m2
18:47 57.6 °F /  14.2 °C 34.0 °F /  1.1 °C 30.32in /  1026.6hPa Calm     41% 0.00in /  0mm 0.0 W/m2
18:53 57.0 °F /  13.9 °C 34.2 °F /  1.2 °C 30.32in /  1026.6hPa Calm     42% 0.00in /  0mm 0.0 W/m2
18:59 56.5 °F /  13.6 °C 34.3 °F /  1.3 °C 30.33in /  1027hPa Calm     43% 0.00in /  0mm 0.0 W/m2
19:05 56.1 °F /  13.4 °C 34.0 °F /  1.1 °C 30.33in /  1027hPa Calm     43% 0.00in /  0mm 0.0 W/m2
19:11 55.8 °F /  13.2 °C 33.6 °F /  0.9 °C 30.33in /  1027hPa Calm     43% 0.00in /  0mm 0.0 W/m2
19:17 55.6 °F /  13.1 °C 33.4 °F /  0.8 °C 30.33in /  1027hPa Calm     43% 0.00in /  0mm 0.0 W/m2
19:24 55.0 °F /  12.8 °C 32.9 °F /  0.5 °C 30.33in /  1027hPa Calm     43% 0.00in /  0mm 0.0 W/m2
19:29 54.7 °F /  12.6 °C 33.3 °F /  0.7 °C 30.33in /  1027hPa Calm     44% 0.00in /  0mm 0.0 W/m2
19:35 54.3 °F /  12.4 °C 32.9 °F /  0.5 °C 30.33in /  1027hPa Calm   1.0mph /  1.6km/h 44% 0.00in /  0mm 0.0 W/m2
19:41 54.1 °F /  12.3 °C 33.3 °F /  0.7 °C 30.34in /  1027.3hPa Calm   2.0mph /  3.2km/h 45% 0.00in /  0mm 0.0 W/m2
19:48 54.0 °F /  12.2 °C 33.1 °F /  0.6 °C 30.34in /  1027.3hPa Calm   2.0mph /  3.2km/h 45% 0.00in /  0mm 0.0 W/m2
19:54 54.0 °F /  12.2 °C 33.6 °F /  0.9 °C 30.34in /  1027.3hPa Calm   1.0mph /  1.6km/h 46% 0.00in /  0mm 0.0 W/m2
20:00 54.0 °F /  12.2 °C 33.6 °F /  0.9 °C 30.34in /  1027.3hPa Calm   1.0mph /  1.6km/h 46% 0.00in /  0mm 0.0 W/m2
20:06 53.8 °F /  12.1 °C 33.4 °F /  0.8 °C 30.34in /  1027.3hPa Calm     46% 0.00in /  0mm 0.0 W/m2
20:12 53.8 °F /  12.1 °C 32.9 °F /  0.5 °C 30.34in /  1027.3hPa SE 0.9mph /  1.4km/h 1.0mph /  1.6km/h 45% 0.00in /  0mm 0.0 W/m2
20:18 53.8 °F /  12.1 °C 33.4 °F /  0.8 °C 30.34in /  1027.3hPa Calm   2.0mph /  3.2km/h 46% 0.00in /  0mm 0.0 W/m2
20:24 53.6 °F /  12 °C 32.7 °F /  0.4 °C 30.35in /  1027.7hPa Calm   3.0mph /  4.8km/h 45% 0.00in /  0mm 0.0 W/m2
20:30 53.6 °F /  12 °C 32.7 °F /  0.4 °C 30.35in /  1027.7hPa Calm     45% 0.00in /  0mm 0.0 W/m2
20:36 53.4 °F /  11.9 °C 33.1 °F /  0.6 °C 30.35in /  1027.7hPa Calm   5.0mph /  8km/h 46% 0.00in /  0mm 0.0 W/m2
20:42 53.4 °F /  11.9 °C 33.1 °F /  0.6 °C 30.35in /  1027.7hPa ENE 2.0mph /  3.2km/h 3.0mph /  4.8km/h 46% 0.00in /  0mm 0.0 W/m2
20:48 53.2 °F /  11.8 °C 33.1 °F /  0.6 °C 30.35in /  1027.7hPa Calm   2.0mph /  3.2km/h 46% 0.00in /  0mm 0.0 W/m2
20:54 53.1 °F /  11.7 °C 32.9 °F /  0.5 °C 30.35in /  1027.7hPa ESE 0.9mph /  1.4km/h 4.0mph /  6.4km/h 46% 0.00in /  0mm 0.0 W/m2
21:00 53.1 °F /  11.7 °C 32.9 °F /  0.5 °C 30.35in /  1027.7hPa Calm   1.0mph /  1.6km/h 46% 0.00in /  0mm 0.0 W/m2
21:06 53.1 °F /  11.7 °C 33.4 °F /  0.8 °C 30.35in /  1027.7hPa Calm   4.0mph /  6.4km/h 47% 0.00in /  0mm 0.0 W/m2
21:12 52.9 °F /  11.6 °C 33.3 °F /  0.7 °C 30.36in /  1028hPa Calm   5.0mph /  8km/h 47% 0.00in /  0mm 0.0 W/m2
21:18 52.5 °F /  11.4 °C 32.9 °F /  0.5 °C 30.36in /  1028hPa ESE 2.0mph /  3.2km/h 6.0mph /  9.7km/h 47% 0.00in /  0mm 0.0 W/m2
21:24 52.3 °F /  11.3 °C 32.7 °F /  0.4 °C 30.36in /  1028hPa Calm   3.0mph /  4.8km/h 47% 0.00in /  0mm 0.0 W/m2
21:30 52.3 °F /  11.3 °C 32.7 °F /  0.4 °C 30.36in /  1028hPa ENE 2.9mph /  4.7km/h 3.0mph /  4.8km/h 47% 0.00in /  0mm 0.0 W/m2
21:37 52.2 °F /  11.2 °C 32.5 °F /  0.3 °C 30.36in /  1028hPa South 0.9mph /  1.4km/h 2.0mph /  3.2km/h 47% 0.00in /  0mm 0.0 W/m2
21:43 52.0 °F /  11.1 °C 32.4 °F /  0.2 °C 30.36in /  1028hPa Calm   1.0mph /  1.6km/h 47% 0.00in /  0mm 0.0 W/m2
21:49 51.8 °F /  11 °C 32.7 °F /  0.4 °C 30.36in /  1028hPa Calm   2.0mph /  3.2km/h 48% 0.00in /  0mm 0.0 W/m2
21:55 51.6 °F /  10.9 °C 32.5 °F /  0.3 °C 30.36in /  1028hPa Calm   2.0mph /  3.2km/h 48% 0.00in /  0mm 0.0 W/m2
22:01 51.4 °F /  10.8 °C 32.4 °F /  0.2 °C 30.36in /  1028hPa ESE 0.9mph /  1.4km/h 2.0mph /  3.2km/h 48% 0.00in /  0mm 0.0 W/m2
22:07 51.3 °F /  10.7 °C 32.2 °F /  0.1 °C 30.36in /  1028hPa East 0.9mph /  1.4km/h 1.0mph /  1.6km/h 48% 0.00in /  0mm 0.0 W/m2
22:13 51.1 °F /  10.6 °C 32.5 °F /  0.3 °C 30.35in /  1027.7hPa SE 2.0mph /  3.2km/h 4.0mph /  6.4km/h 49% 0.00in /  0mm 0.0 W/m2
22:19 51.1 °F /  10.6 °C 32.5 °F /  0.3 °C 30.36in /  1028hPa Calm   1.0mph /  1.6km/h 49% 0.00in /  0mm 0.0 W/m2
22:25 50.9 °F /  10.5 °C 32.4 °F /  0.2 °C 30.36in /  1028hPa Calm     49% 0.00in /  0mm 0.0 W/m2
22:32 50.7 °F /  10.4 °C 32.7 °F /  0.4 °C 30.36in /  1028hPa ESE 2.0mph /  3.2km/h 2.0mph /  3.2km/h 50% 0.00in /  0mm 0.0 W/m2
22:38 50.5 °F /  10.3 °C 32.5 °F /  0.3 °C 30.36in /  1028hPa ESE 2.0mph /  3.2km/h 5.0mph /  8km/h 50% 0.00in /  0mm 0.0 W/m2
22:44 50.4 °F /  10.2 °C 32.4 °F /  0.2 °C 30.36in /  1028hPa ENE 0.9mph /  1.4km/h 3.0mph /  4.8km/h 50% 0.00in /  0mm 0.0 W/m2
22:50 50.2 °F /  10.1 °C 32.7 °F /  0.4 °C 30.36in /  1028hPa SSE 0.9mph /  1.4km/h 1.0mph /  1.6km/h 51% 0.00in /  0mm 0.0 W/m2
22:56 50.4 °F /  10.2 °C 32.9 °F /  0.5 °C 30.36in /  1028hPa Calm   2.0mph /  3.2km/h 51% 0.00in /  0mm 0.0 W/m2
23:02 50.0 °F /  10 °C 32.5 °F /  0.3 °C 30.36in /  1028hPa Calm   3.0mph /  4.8km/h 51% 0.00in /  0mm 0.0 W/m2
23:08 49.8 °F /  9.9 °C 32.9 °F /  0.5 °C 30.35in /  1027.7hPa Calm   1.0mph /  1.6km/h 52% 0.00in /  0mm 0.0 W/m2
23:14 49.8 °F /  9.9 °C 32.9 °F /  0.5 °C 30.35in /  1027.7hPa ENE 0.9mph /  1.4km/h 5.0mph /  8km/h 52% 0.00in /  0mm 0.0 W/m2
23:20 49.8 °F /  9.9 °C 32.9 °F /  0.5 °C 30.36in /  1028hPa Calm   1.0mph /  1.6km/h 52% 0.00in /  0mm 0.0 W/m2
23:26 49.8 °F /  9.9 °C 32.9 °F /  0.5 °C 30.35in /  1027.7hPa Calm     52% 0.00in /  0mm 0.0 W/m2
23:33 49.8 °F /  9.9 °C 32.9 °F /  0.5 °C 30.36in /  1028hPa Calm     52% 0.00in /  0mm 0.0 W/m2
23:39 49.6 °F /  9.8 °C 32.7 °F /  0.4 °C 30.35in /  1027.7hPa Calm   1.0mph /  1.6km/h 52% 0.00in /  0mm 0.0 W/m2
23:45 49.5 °F /  9.7 °C 33.1 °F /  0.6 °C 30.36in /  1028hPa Calm   1.0mph /  1.6km/h 53% 0.00in /  0mm 0.0 W/m2
23:51 49.3 °F /  9.6 °C 32.9 °F /  0.5 °C 30.35in /  1027.7hPa Calm   3.0mph /  4.8km/h 53% 0.00in /  0mm 0.0 W/m2
23:57 49.1 °F /  9.5 °C 32.7 °F /  0.4 °C 30.35in /  1027.7hPa Calm   2.0mph /  3.2km/h 53% 0.00in /  0mm 0.0 W/m2
Olympia, Windhoek, Namibia
Compliments of Weather Underground - 3 mb